Flight Track Log - Related Links

Times and Time Zones

All times are in EDT time to prevent confusion due to time zone crossing. See the N1881Q flight status page for this flight to view local times or setup timezone preferences in your user account.

Time Position Orientation Groundspeed Altitude Reporting Facility
EDT Latitude Longitude Course Direction KTS MPH feet Rate Location/Type
Sat 06:57:51 PM 42.5189 -76.6075 154° Southeast 257 296 7,800  Level New York Center
Sat 06:58:52 PM 42.4406 -76.5922 172° South 218 251 8,000 984 Climbing New York Center
Sat 06:59:53 PM 42.4108 -76.4800 110° East 192 221 9,800 1,916 Climbing New York Center
Sat 07:00:51 PM 42.3811 -76.3594 108° East 244 281 11,800 1,563 Climbing New York Center
Sat 07:01:52 PM 42.3411 -76.2328 113° Southeast 309 356 12,900 1,349 Climbing New York Center
Sat 07:02:00 PM 42.0635 -76.1867 154° Southeast  Level FlightAware Approximate
Sat 07:03:00 PM 41.9930 -76.1397 154° Southeast  Level FlightAware Approximate
Sat 07:03:00 PM 42.2986 -76.0669 109° East 427 491 14,700  Level Boston Center
Sat 07:04:00 PM 42.2650 -75.9417 110° East 411 473 14,900 100 Climbing Boston Center
Sat 07:05:00 PM 42.2172 -75.8017 115° Southeast 406 467 14,900 50 Level Boston Center
Sat 07:06:00 PM 42.1714 -75.6533 113° Southeast 400 460 15,000 50 Climbing Boston Center
Sat 07:07:00 PM 42.1294 -75.5169 112° Southeast 400 460 15,000  Level Boston Center
Sat 07:08:12 PM 42.0831 -75.3803 115° Southeast 400 460 15,000  Level Boston Center
Sat 07:09:12 PM 42.0286 -75.2183 114° Southeast 400 460 15,000  Level Boston Center
Sat 07:10:12 PM 41.9814 -75.1017 119° Southeast 394 453 15,000  Level Boston Center
Sat 07:11:12 PM 41.9283 -74.9600 117° Southeast 394 453 15,000 -300 Level Boston Center
Sat 07:12:12 PM 41.8831 -74.8411 117° Southeast 394 453 14,400 -850 Descending Boston Center
Sat 07:13:12 PM 41.8278 -74.6969 117° Southeast 394 453 13,300 -1,500 Descending Boston Center
Sat 07:14:12 PM 41.7625 -74.6222 139° Southeast 364 419 11,400 -2,350 Descending Boston Center
Sat 07:15:12 PM 41.6608 -74.6019 172° South 334 384 8,600 -2,182 Descending Boston Center
Sat 07:16:13 PM 41.5836 -74.5994 179° South 327 376 7,000 -800 Descending Boston Center
Sat 07:17:12 PM 41.4961 -74.5908 176° South 305 351 7,000 -290 Level Boston Center
Sat 07:19:19 PM 41.3333 -74.5833 178° South 274 315 6,100 -466 Descending New York TRACON
Sat 07:20:25 PM 41.2833 -74.5167 135° Southeast 284 327 5,500 -857 Descending New York TRACON
Sat 07:21:25 PM 41.2333 -74.4167 124° Southeast 285 328 4,300 -737 Descending New York TRACON
Sat 07:22:19 PM 41.2000 -74.3500 124° Southeast 279 321 4,100 -526 Descending New York TRACON
Sat 07:23:19 PM 41.1500 -74.2667 129° Southeast 261 300 3,300 -476 Descending New York TRACON
Sat 07:24:25 PM 41.1000 -74.1833 129° Southeast 243 280 3,100 -150 Descending New York TRACON
Sat 07:25:19 PM 41.0667 -74.1333 131° Southeast 218 251 3,000 -526 Descending New York TRACON
Sat 07:26:19 PM 41.0333 -74.0667 124° Southeast 215 247 2,100 -450 Descending New York TRACON
Sat 07:27:19 PM 40.9833 -74.0500 166° South 184 212 2,100 -200 Level New York TRACON
Sat 07:28:19 PM 40.9333 -74.0500 180° South 144 166 1,700 -550 Descending New York TRACON
Sat 07:29:19 PM 40.9000 -74.0500 180° South 140 161 1,000 -700 Descending New York TRACON
Sat 07:31:00 PM 40.8500 -74.0500 114° Southeast  Level FlightAware Approximate
Sat 07:38:00 PM 40.8501 -74.0608 114° Southeast  Level Estimated

Login

Don't have an account? Register now (free) for customized features, flight alerts, and more!